sensor_id;sensor_type;location;lat;lon;timestamp;P1;durP1;ratioP1;P2;durP2;ratioP2
11996;SDS011;6058;48.704;9.474;2022-12-07T00:04:58;4.53;;;4.00;;
11996;SDS011;6058;48.704;9.474;2022-12-07T00:07:32;6.33;;;4.33;;
11996;SDS011;6058;48.704;9.474;2022-12-07T00:10:07;5.90;;;4.37;;
11996;SDS011;6058;48.704;9.474;2022-12-07T00:12:44;5.10;;;4.10;;
11996;SDS011;6058;48.704;9.474;2022-12-07T00:15:27;5.57;;;4.07;;
11996;SDS011;6058;48.704;9.474;2022-12-07T00:18:04;7.10;;;4.43;;
11996;SDS011;6058;48.704;9.474;2022-12-07T00:20:45;4.97;;;4.17;;
11996;SDS011;6058;48.704;9.474;2022-12-07T00:23:35;4.07;;;3.67;;
11996;SDS011;6058;48.704;9.474;2022-12-07T00:26:15;4.43;;;3.70;;
11996;SDS011;6058;48.704;9.474;2022-12-07T00:28:51;5.27;;;4.03;;
11996;SDS011;6058;48.704;9.474;2022-12-07T00:31:29;4.63;;;3.63;;
11996;SDS011;6058;48.704;9.474;2022-12-07T00:34:18;4.63;;;3.87;;
11996;SDS011;6058;48.704;9.474;2022-12-07T00:37:01;4.20;;;3.50;;
11996;SDS011;6058;48.704;9.474;2022-12-07T00:39:42;5.70;;;4.20;;
11996;SDS011;6058;48.704;9.474;2022-12-07T00:42:17;4.97;;;4.00;;
11996;SDS011;6058;48.704;9.474;2022-12-07T00:45:00;5.63;;;4.47;;
11996;SDS011;6058;48.704;9.474;2022-12-07T00:47:52;5.00;;;4.37;;
11996;SDS011;6058;48.704;9.474;2022-12-07T00:50:26;5.27;;;4.07;;
11996;SDS011;6058;48.704;9.474;2022-12-07T00:53:13;4.93;;;3.93;;
11996;SDS011;6058;48.704;9.474;2022-12-07T00:55:50;4.47;;;3.87;;
11996;SDS011;6058;48.704;9.474;2022-12-07T00:58:29;4.33;;;3.77;;
11996;SDS011;6058;48.704;9.474;2022-12-07T01:01:20;7.10;;;4.70;;
11996;SDS011;6058;48.704;9.474;2022-12-07T01:04:05;9.07;;;5.17;;
11996;SDS011;6058;48.704;9.474;2022-12-07T01:06:38;4.53;;;4.00;;
11996;SDS011;6058;48.704;9.474;2022-12-07T01:09:30;7.47;;;3.93;;
11996;SDS011;6058;48.704;9.474;2022-12-07T01:12:06;5.40;;;4.07;;
11996;SDS011;6058;48.704;9.474;2022-12-07T01:14:49;5.80;;;4.10;;
11996;SDS011;6058;48.704;9.474;2022-12-07T01:20:07;5.50;;;4.37;;
11996;SDS011;6058;48.704;9.474;2022-12-07T01:22:51;6.20;;;4.60;;
11996;SDS011;6058;48.704;9.474;2022-12-07T01:25:39;6.73;;;4.63;;
11996;SDS011;6058;48.704;9.474;2022-12-07T01:28:17;5.23;;;4.43;;
11996;SDS011;6058;48.704;9.474;2022-12-07T01:31:07;6.10;;;4.70;;
11996;SDS011;6058;48.704;9.474;2022-12-07T01:33:49;6.43;;;4.83;;
11996;SDS011;6058;48.704;9.474;2022-12-07T01:36:25;6.17;;;4.87;;
11996;SDS011;6058;48.704;9.474;2022-12-07T01:39:11;7.67;;;5.27;;
11996;SDS011;6058;48.704;9.474;2022-12-07T01:41:53;6.80;;;4.70;;
11996;SDS011;6058;48.704;9.474;2022-12-07T01:44:30;6.87;;;4.80;;
11996;SDS011;6058;48.704;9.474;2022-12-07T01:47:11;9.33;;;5.00;;
11996;SDS011;6058;48.704;9.474;2022-12-07T01:49:51;5.87;;;4.37;;
11996;SDS011;6058;48.704;9.474;2022-12-07T01:52:32;7.40;;;4.60;;
11996;SDS011;6058;48.704;9.474;2022-12-07T01:55:15;8.37;;;5.40;;
11996;SDS011;6058;48.704;9.474;2022-12-07T01:58:06;5.43;;;4.23;;
11996;SDS011;6058;48.704;9.474;2022-12-07T02:00:53;6.67;;;4.67;;
11996;SDS011;6058;48.704;9.474;2022-12-07T02:03:41;5.77;;;4.60;;
11996;SDS011;6058;48.704;9.474;2022-12-07T02:11:47;7.27;;;4.70;;
11996;SDS011;6058;48.704;9.474;2022-12-07T02:14:37;7.40;;;5.27;;
11996;SDS011;6058;48.704;9.474;2022-12-07T02:17:25;6.73;;;4.73;;
11996;SDS011;6058;48.704;9.474;2022-12-07T02:20:24;7.57;;;5.27;;
11996;SDS011;6058;48.704;9.474;2022-12-07T02:29:24;8.77;;;5.43;;
11996;SDS011;6058;48.704;9.474;2022-12-07T02:32:03;6.10;;;4.70;;
11996;SDS011;6058;48.704;9.474;2022-12-07T02:34:44;7.73;;;5.50;;
11996;SDS011;6058;48.704;9.474;2022-12-07T02:37:39;9.67;;;6.30;;
11996;SDS011;6058;48.704;9.474;2022-12-07T02:40:22;8.60;;;6.10;;
11996;SDS011;6058;48.704;9.474;2022-12-07T02:43:11;7.50;;;4.73;;
11996;SDS011;6058;48.704;9.474;2022-12-07T02:45:49;8.30;;;5.63;;
11996;SDS011;6058;48.704;9.474;2022-12-07T02:48:41;8.77;;;5.50;;
11996;SDS011;6058;48.704;9.474;2022-12-07T02:51:29;8.00;;;5.30;;
11996;SDS011;6058;48.704;9.474;2022-12-07T02:54:13;7.50;;;5.73;;
11996;SDS011;6058;48.704;9.474;2022-12-07T02:56:51;9.00;;;5.97;;
11996;SDS011;6058;48.704;9.474;2022-12-07T02:59:35;8.63;;;5.80;;
11996;SDS011;6058;48.704;9.474;2022-12-07T03:02:22;7.67;;;5.27;;
11996;SDS011;6058;48.704;9.474;2022-12-07T03:04:58;6.87;;;5.50;;
11996;SDS011;6058;48.704;9.474;2022-12-07T03:10:18;8.30;;;5.87;;
11996;SDS011;6058;48.704;9.474;2022-12-07T03:13:11;9.73;;;5.73;;
11996;SDS011;6058;48.704;9.474;2022-12-07T03:15:58;7.70;;;6.07;;
11996;SDS011;6058;48.704;9.474;2022-12-07T03:21:10;8.60;;;5.80;;
11996;SDS011;6058;48.704;9.474;2022-12-07T03:24:08;8.17;;;5.30;;
11996;SDS011;6058;48.704;9.474;2022-12-07T03:26:53;7.20;;;5.63;;
11996;SDS011;6058;48.704;9.474;2022-12-07T03:29:38;10.83;;;6.00;;
11996;SDS011;6058;48.704;9.474;2022-12-07T03:32:55;8.97;;;5.70;;
11996;SDS011;6058;48.704;9.474;2022-12-07T03:35:45;8.90;;;5.47;;
11996;SDS011;6058;48.704;9.474;2022-12-07T03:38:51;8.30;;;5.13;;
11996;SDS011;6058;48.704;9.474;2022-12-07T03:41:38;9.20;;;5.43;;
11996;SDS011;6058;48.704;9.474;2022-12-07T03:44:28;9.17;;;5.63;;
11996;SDS011;6058;48.704;9.474;2022-12-07T03:47:13;7.87;;;5.83;;
11996;SDS011;6058;48.704;9.474;2022-12-07T03:50:09;9.43;;;6.10;;
11996;SDS011;6058;48.704;9.474;2022-12-07T03:53:02;8.30;;;6.33;;
11996;SDS011;6058;48.704;9.474;2022-12-07T03:55:57;9.63;;;6.33;;
11996;SDS011;6058;48.704;9.474;2022-12-07T03:58:38;9.17;;;6.90;;
11996;SDS011;6058;48.704;9.474;2022-12-07T04:01:24;7.17;;;4.83;;
11996;SDS011;6058;48.704;9.474;2022-12-07T04:04:09;9.43;;;6.47;;
11996;SDS011;6058;48.704;9.474;2022-12-07T04:07:02;9.37;;;5.77;;
11996;SDS011;6058;48.704;9.474;2022-12-07T04:09:45;8.07;;;5.40;;
11996;SDS011;6058;48.704;9.474;2022-12-07T04:17:35;7.60;;;4.57;;
11996;SDS011;6058;48.704;9.474;2022-12-07T04:20:31;8.90;;;5.67;;
11996;SDS011;6058;48.704;9.474;2022-12-07T04:23:17;11.17;;;6.40;;
11996;SDS011;6058;48.704;9.474;2022-12-07T04:28:41;8.90;;;6.20;;
11996;SDS011;6058;48.704;9.474;2022-12-07T04:31:29;7.73;;;5.50;;
11996;SDS011;6058;48.704;9.474;2022-12-07T04:34:27;10.10;;;5.77;;
11996;SDS011;6058;48.704;9.474;2022-12-07T04:37:05;8.23;;;5.93;;
11996;SDS011;6058;48.704;9.474;2022-12-07T04:42:21;10.07;;;6.60;;
11996;SDS011;6058;48.704;9.474;2022-12-07T04:44:48;7.93;;;5.50;;
11996;SDS011;6058;48.704;9.474;2022-12-07T04:47:15;9.30;;;5.77;;
11996;SDS011;6058;48.704;9.474;2022-12-07T04:49:44;8.70;;;6.30;;
11996;SDS011;6058;48.704;9.474;2022-12-07T04:52:11;9.90;;;5.73;;
11996;SDS011;6058;48.704;9.474;2022-12-07T04:54:38;9.30;;;6.43;;
11996;SDS011;6058;48.704;9.474;2022-12-07T04:57:06;8.80;;;6.37;;
11996;SDS011;6058;48.704;9.474;2022-12-07T04:59:33;7.47;;;5.43;;
11996;SDS011;6058;48.704;9.474;2022-12-07T05:02:00;10.43;;;5.77;;
11996;SDS011;6058;48.704;9.474;2022-12-07T05:04:27;7.37;;;5.17;;
11996;SDS011;6058;48.704;9.474;2022-12-07T05:06:56;8.67;;;5.50;;
11996;SDS011;6058;48.704;9.474;2022-12-07T05:09:23;7.63;;;5.30;;
11996;SDS011;6058;48.704;9.474;2022-12-07T05:11:50;8.37;;;5.70;;
11996;SDS011;6058;48.704;9.474;2022-12-07T05:14:18;9.33;;;6.17;;
11996;SDS011;6058;48.704;9.474;2022-12-07T05:16:46;10.37;;;6.50;;
11996;SDS011;6058;48.704;9.474;2022-12-07T05:19:14;12.30;;;6.37;;
11996;SDS011;6058;48.704;9.474;2022-12-07T05:21:42;11.83;;;6.90;;
11996;SDS011;6058;48.704;9.474;2022-12-07T05:24:11;10.50;;;6.77;;
11996;SDS011;6058;48.704;9.474;2022-12-07T05:26:39;8.40;;;5.83;;
11996;SDS011;6058;48.704;9.474;2022-12-07T05:29:06;9.73;;;6.43;;
11996;SDS011;6058;48.704;9.474;2022-12-07T05:31:33;8.73;;;6.00;;
11996;SDS011;6058;48.704;9.474;2022-12-07T05:34:01;12.80;;;7.30;;
11996;SDS011;6058;48.704;9.474;2022-12-07T05:36:28;10.43;;;7.07;;
11996;SDS011;6058;48.704;9.474;2022-12-07T05:38:57;11.57;;;6.60;;
11996;SDS011;6058;48.704;9.474;2022-12-07T05:41:29;6.53;;;5.03;;
11996;SDS011;6058;48.704;9.474;2022-12-07T05:44:13;7.57;;;5.87;;
11996;SDS011;6058;48.704;9.474;2022-12-07T05:46:41;9.00;;;6.00;;
11996;SDS011;6058;48.704;9.474;2022-12-07T05:49:08;9.60;;;5.37;;
11996;SDS011;6058;48.704;9.474;2022-12-07T05:51:35;8.30;;;6.00;;
11996;SDS011;6058;48.704;9.474;2022-12-07T05:54:02;11.73;;;6.37;;
11996;SDS011;6058;48.704;9.474;2022-12-07T05:59:23;11.90;;;7.57;;
11996;SDS011;6058;48.704;9.474;2022-12-07T06:01:52;14.33;;;7.27;;
11996;SDS011;6058;48.704;9.474;2022-12-07T06:04:21;12.93;;;7.43;;
11996;SDS011;6058;48.704;9.474;2022-12-07T06:06:48;13.17;;;7.77;;
11996;SDS011;6058;48.704;9.474;2022-12-07T06:09:16;9.70;;;6.00;;
11996;SDS011;6058;48.704;9.474;2022-12-07T06:11:44;11.57;;;6.30;;
11996;SDS011;6058;48.704;9.474;2022-12-07T06:14:30;12.83;;;7.57;;
11996;SDS011;6058;48.704;9.474;2022-12-07T06:16:59;9.53;;;5.63;;
11996;SDS011;6058;48.704;9.474;2022-12-07T06:19:27;11.67;;;6.60;;
11996;SDS011;6058;48.704;9.474;2022-12-07T06:21:54;9.73;;;6.37;;
11996;SDS011;6058;48.704;9.474;2022-12-07T06:24:21;8.33;;;6.00;;
11996;SDS011;6058;48.704;9.474;2022-12-07T06:26:49;9.37;;;5.60;;
11996;SDS011;6058;48.704;9.474;2022-12-07T06:29:16;9.63;;;6.10;;
11996;SDS011;6058;48.704;9.474;2022-12-07T06:31:45;9.83;;;6.50;;
11996;SDS011;6058;48.704;9.474;2022-12-07T06:34:13;9.23;;;6.03;;
11996;SDS011;6058;48.704;9.474;2022-12-07T06:36:40;13.13;;;7.47;;
11996;SDS011;6058;48.704;9.474;2022-12-07T06:39:08;15.20;;;8.13;;
11996;SDS011;6058;48.704;9.474;2022-12-07T06:41:35;10.33;;;6.33;;
11996;SDS011;6058;48.704;9.474;2022-12-07T06:44:03;10.10;;;6.87;;
11996;SDS011;6058;48.704;9.474;2022-12-07T06:46:30;10.67;;;7.33;;
11996;SDS011;6058;48.704;9.474;2022-12-07T06:48:58;10.27;;;6.10;;
11996;SDS011;6058;48.704;9.474;2022-12-07T06:51:25;14.03;;;5.97;;
11996;SDS011;6058;48.704;9.474;2022-12-07T06:53:52;10.43;;;6.70;;
11996;SDS011;6058;48.704;9.474;2022-12-07T06:56:20;13.30;;;6.00;;
11996;SDS011;6058;48.704;9.474;2022-12-07T06:58:47;7.63;;;5.67;;
11996;SDS011;6058;48.704;9.474;2022-12-07T07:01:16;8.77;;;6.77;;
11996;SDS011;6058;48.704;9.474;2022-12-07T07:03:44;9.77;;;6.10;;
11996;SDS011;6058;48.704;9.474;2022-12-07T07:06:13;10.73;;;6.53;;
11996;SDS011;6058;48.704;9.474;2022-12-07T07:08:40;9.97;;;5.77;;
11996;SDS011;6058;48.704;9.474;2022-12-07T07:11:08;8.30;;;5.80;;
11996;SDS011;6058;48.704;9.474;2022-12-07T07:13:35;8.33;;;5.60;;
11996;SDS011;6058;48.704;9.474;2022-12-07T07:16:02;11.10;;;7.20;;
11996;SDS011;6058;48.704;9.474;2022-12-07T07:18:29;10.93;;;6.10;;
11996;SDS011;6058;48.704;9.474;2022-12-07T07:20:56;9.47;;;5.90;;
11996;SDS011;6058;48.704;9.474;2022-12-07T07:23:25;9.10;;;5.97;;
11996;SDS011;6058;48.704;9.474;2022-12-07T07:25:52;9.27;;;5.83;;
11996;SDS011;6058;48.704;9.474;2022-12-07T07:28:19;11.53;;;7.37;;
11996;SDS011;6058;48.704;9.474;2022-12-07T07:30:47;11.47;;;6.77;;
11996;SDS011;6058;48.704;9.474;2022-12-07T07:33:14;9.43;;;6.67;;
11996;SDS011;6058;48.704;9.474;2022-12-07T07:35:41;9.10;;;5.87;;
11996;SDS011;6058;48.704;9.474;2022-12-07T07:38:08;10.07;;;6.40;;
11996;SDS011;6058;48.704;9.474;2022-12-07T07:40:37;8.07;;;5.40;;
11996;SDS011;6058;48.704;9.474;2022-12-07T07:43:04;9.50;;;5.67;;
11996;SDS011;6058;48.704;9.474;2022-12-07T07:45:31;9.07;;;6.27;;
11996;SDS011;6058;48.704;9.474;2022-12-07T07:50:45;10.73;;;6.07;;
11996;SDS011;6058;48.704;9.474;2022-12-07T07:53:12;9.83;;;6.33;;
11996;SDS011;6058;48.704;9.474;2022-12-07T07:55:41;8.90;;;6.77;;
11996;SDS011;6058;48.704;9.474;2022-12-07T07:58:08;8.80;;;5.73;;
11996;SDS011;6058;48.704;9.474;2022-12-07T08:00:35;7.80;;;5.63;;
11996;SDS011;6058;48.704;9.474;2022-12-07T08:03:02;8.40;;;5.10;;
11996;SDS011;6058;48.704;9.474;2022-12-07T08:05:29;7.20;;;5.57;;
11996;SDS011;6058;48.704;9.474;2022-12-07T08:07:57;7.73;;;5.63;;
11996;SDS011;6058;48.704;9.474;2022-12-07T08:10:24;6.70;;;5.20;;
11996;SDS011;6058;48.704;9.474;2022-12-07T08:12:52;8.90;;;5.47;;
11996;SDS011;6058;48.704;9.474;2022-12-07T08:15:39;11.80;;;6.17;;
11996;SDS011;6058;48.704;9.474;2022-12-07T08:18:07;10.00;;;6.53;;
11996;SDS011;6058;48.704;9.474;2022-12-07T08:20:35;10.77;;;6.60;;
11996;SDS011;6058;48.704;9.474;2022-12-07T08:23:02;8.57;;;5.93;;
11996;SDS011;6058;48.704;9.474;2022-12-07T08:25:30;10.47;;;6.90;;
11996;SDS011;6058;48.704;9.474;2022-12-07T08:27:59;11.17;;;7.17;;
11996;SDS011;6058;48.704;9.474;2022-12-07T08:30:26;10.87;;;6.97;;
11996;SDS011;6058;48.704;9.474;2022-12-07T08:32:54;8.77;;;5.97;;
11996;SDS011;6058;48.704;9.474;2022-12-07T08:35:22;9.53;;;6.63;;
11996;SDS011;6058;48.704;9.474;2022-12-07T08:37:49;10.27;;;6.33;;
11996;SDS011;6058;48.704;9.474;2022-12-07T08:40:16;10.53;;;6.53;;
11996;SDS011;6058;48.704;9.474;2022-12-07T08:42:44;11.50;;;6.37;;
11996;SDS011;6058;48.704;9.474;2022-12-07T08:45:14;9.47;;;6.07;;
11996;SDS011;6058;48.704;9.474;2022-12-07T08:47:43;11.13;;;7.17;;
11996;SDS011;6058;48.704;9.474;2022-12-07T08:50:11;10.20;;;6.50;;
11996;SDS011;6058;48.704;9.474;2022-12-07T08:52:39;10.13;;;6.43;;
11996;SDS011;6058;48.704;9.474;2022-12-07T08:55:08;9.33;;;6.17;;
11996;SDS011;6058;48.704;9.474;2022-12-07T08:57:36;10.37;;;6.30;;
11996;SDS011;6058;48.704;9.474;2022-12-07T09:00:04;7.90;;;5.47;;
11996;SDS011;6058;48.704;9.474;2022-12-07T09:02:33;8.90;;;6.70;;
11996;SDS011;6058;48.704;9.474;2022-12-07T09:05:00;9.50;;;5.37;;
11996;SDS011;6058;48.704;9.474;2022-12-07T09:07:29;9.07;;;5.53;;
11996;SDS011;6058;48.704;9.474;2022-12-07T09:09:57;9.43;;;6.13;;
11996;SDS011;6058;48.704;9.474;2022-12-07T09:12:24;10.23;;;6.10;;
11996;SDS011;6058;48.704;9.474;2022-12-07T09:14:51;7.67;;;5.50;;
11996;SDS011;6058;48.704;9.474;2022-12-07T09:17:18;6.73;;;4.77;;
11996;SDS011;6058;48.704;9.474;2022-12-07T09:19:47;7.40;;;5.27;;
11996;SDS011;6058;48.704;9.474;2022-12-07T09:22:14;6.90;;;4.97;;
11996;SDS011;6058;48.704;9.474;2022-12-07T09:24:41;7.07;;;4.93;;
11996;SDS011;6058;48.704;9.474;2022-12-07T09:27:10;6.80;;;5.00;;
11996;SDS011;6058;48.704;9.474;2022-12-07T09:29:38;6.07;;;4.50;;
11996;SDS011;6058;48.704;9.474;2022-12-07T09:32:05;8.53;;;4.60;;
11996;SDS011;6058;48.704;9.474;2022-12-07T09:34:32;7.70;;;4.60;;
11996;SDS011;6058;48.704;9.474;2022-12-07T09:37:01;6.80;;;4.70;;
11996;SDS011;6058;48.704;9.474;2022-12-07T09:39:29;6.93;;;4.80;;
11996;SDS011;6058;48.704;9.474;2022-12-07T09:41:56;6.27;;;4.80;;
11996;SDS011;6058;48.704;9.474;2022-12-07T09:44:24;7.93;;;4.90;;
11996;SDS011;6058;48.704;9.474;2022-12-07T09:46:53;5.67;;;4.13;;
11996;SDS011;6058;48.704;9.474;2022-12-07T09:52:17;8.07;;;4.73;;
11996;SDS011;6058;48.704;9.474;2022-12-07T09:54:46;6.23;;;4.53;;
11996;SDS011;6058;48.704;9.474;2022-12-07T09:57:14;7.30;;;4.70;;
11996;SDS011;6058;48.704;9.474;2022-12-07T09:59:41;8.03;;;5.03;;
11996;SDS011;6058;48.704;9.474;2022-12-07T10:02:22;6.07;;;4.27;;
11996;SDS011;6058;48.704;9.474;2022-12-07T10:04:52;5.10;;;4.33;;
11996;SDS011;6058;48.704;9.474;2022-12-07T10:07:21;7.57;;;4.87;;
11996;SDS011;6058;48.704;9.474;2022-12-07T10:09:48;6.87;;;4.87;;
11996;SDS011;6058;48.704;9.474;2022-12-07T10:12:15;6.80;;;4.47;;
11996;SDS011;6058;48.704;9.474;2022-12-07T10:14:53;7.20;;;5.07;;
11996;SDS011;6058;48.704;9.474;2022-12-07T10:17:31;8.43;;;5.67;;
11996;SDS011;6058;48.704;9.474;2022-12-07T10:20:10;8.33;;;5.20;;
11996;SDS011;6058;48.704;9.474;2022-12-07T10:22:45;8.20;;;5.20;;
11996;SDS011;6058;48.704;9.474;2022-12-07T10:25:20;6.73;;;5.03;;
11996;SDS011;6058;48.704;9.474;2022-12-07T10:27:57;6.77;;;4.97;;
11996;SDS011;6058;48.704;9.474;2022-12-07T10:30:24;6.20;;;4.67;;
11996;SDS011;6058;48.704;9.474;2022-12-07T10:32:51;5.73;;;4.53;;
11996;SDS011;6058;48.704;9.474;2022-12-07T10:35:20;5.47;;;4.47;;
11996;SDS011;6058;48.704;9.474;2022-12-07T10:37:50;8.27;;;5.23;;
11996;SDS011;6058;48.704;9.474;2022-12-07T10:40:28;6.37;;;4.60;;
11996;SDS011;6058;48.704;9.474;2022-12-07T10:43:03;5.67;;;4.37;;
11996;SDS011;6058;48.704;9.474;2022-12-07T10:45:30;6.13;;;4.03;;
11996;SDS011;6058;48.704;9.474;2022-12-07T10:47:59;6.30;;;4.50;;
11996;SDS011;6058;48.704;9.474;2022-12-07T10:50:29;6.83;;;4.50;;
11996;SDS011;6058;48.704;9.474;2022-12-07T10:53:05;5.37;;;3.60;;
11996;SDS011;6058;48.704;9.474;2022-12-07T10:55:41;6.53;;;4.50;;
11996;SDS011;6058;48.704;9.474;2022-12-07T10:58:16;5.30;;;3.90;;
11996;SDS011;6058;48.704;9.474;2022-12-07T11:00:50;5.70;;;4.00;;
11996;SDS011;6058;48.704;9.474;2022-12-07T11:03:29;5.67;;;4.20;;
11996;SDS011;6058;48.704;9.474;2022-12-07T11:05:59;7.23;;;4.27;;
11996;SDS011;6058;48.704;9.474;2022-12-07T11:08:38;6.73;;;4.40;;
11996;SDS011;6058;48.704;9.474;2022-12-07T11:11:06;5.80;;;4.40;;
11996;SDS011;6058;48.704;9.474;2022-12-07T11:13:37;5.53;;;3.87;;
11996;SDS011;6058;48.704;9.474;2022-12-07T11:16:10;10.73;;;4.73;;
11996;SDS011;6058;48.704;9.474;2022-12-07T11:18:42;7.37;;;4.43;;
11996;SDS011;6058;48.704;9.474;2022-12-07T11:21:13;5.50;;;4.37;;
11996;SDS011;6058;48.704;9.474;2022-12-07T11:23:48;5.33;;;4.03;;
11996;SDS011;6058;48.704;9.474;2022-12-07T11:28:50;5.67;;;4.00;;
11996;SDS011;6058;48.704;9.474;2022-12-07T11:31:24;5.63;;;4.23;;
11996;SDS011;6058;48.704;9.474;2022-12-07T11:33:57;7.30;;;4.67;;
11996;SDS011;6058;48.704;9.474;2022-12-07T11:36:43;6.07;;;4.10;;
11996;SDS011;6058;48.704;9.474;2022-12-07T11:39:26;5.30;;;4.37;;
11996;SDS011;6058;48.704;9.474;2022-12-07T11:42:00;6.47;;;4.23;;
11996;SDS011;6058;48.704;9.474;2022-12-07T11:44:33;6.70;;;4.50;;
11996;SDS011;6058;48.704;9.474;2022-12-07T11:47:05;7.93;;;4.17;;
11996;SDS011;6058;48.704;9.474;2022-12-07T11:49:40;5.97;;;4.07;;
11996;SDS011;6058;48.704;9.474;2022-12-07T11:52:16;5.33;;;4.10;;
11996;SDS011;6058;48.704;9.474;2022-12-07T11:54:52;7.77;;;4.83;;
11996;SDS011;6058;48.704;9.474;2022-12-07T11:57:24;5.03;;;3.70;;
11996;SDS011;6058;48.704;9.474;2022-12-07T11:59:56;7.13;;;4.40;;
11996;SDS011;6058;48.704;9.474;2022-12-07T12:02:26;5.63;;;4.20;;
11996;SDS011;6058;48.704;9.474;2022-12-07T12:05:01;6.17;;;4.20;;
11996;SDS011;6058;48.704;9.474;2022-12-07T12:07:35;5.87;;;3.43;;
11996;SDS011;6058;48.704;9.474;2022-12-07T12:10:18;5.33;;;4.20;;
11996;SDS011;6058;48.704;9.474;2022-12-07T12:12:54;7.03;;;4.93;;
11996;SDS011;6058;48.704;9.474;2022-12-07T12:15:36;5.43;;;4.10;;
11996;SDS011;6058;48.704;9.474;2022-12-07T12:18:10;6.53;;;4.17;;
11996;SDS011;6058;48.704;9.474;2022-12-07T12:20:54;6.60;;;4.10;;
11996;SDS011;6058;48.704;9.474;2022-12-07T12:23:32;5.30;;;4.03;;
11996;SDS011;6058;48.704;9.474;2022-12-07T12:26:04;5.90;;;4.20;;
11996;SDS011;6058;48.704;9.474;2022-12-07T12:28:38;5.03;;;3.87;;
11996;SDS011;6058;48.704;9.474;2022-12-07T12:31:10;4.80;;;3.83;;
11996;SDS011;6058;48.704;9.474;2022-12-07T12:33:43;5.70;;;4.30;;
11996;SDS011;6058;48.704;9.474;2022-12-07T12:36:22;7.67;;;4.30;;
11996;SDS011;6058;48.704;9.474;2022-12-07T12:39:16;6.67;;;3.90;;
11996;SDS011;6058;48.704;9.474;2022-12-07T12:42:01;7.00;;;4.03;;
11996;SDS011;6058;48.704;9.474;2022-12-07T12:44:43;5.43;;;3.57;;
11996;SDS011;6058;48.704;9.474;2022-12-07T12:47:41;4.90;;;3.70;;
11996;SDS011;6058;48.704;9.474;2022-12-07T12:50:18;5.50;;;4.00;;
11996;SDS011;6058;48.704;9.474;2022-12-07T12:56:09;4.00;;;3.10;;
11996;SDS011;6058;48.704;9.474;2022-12-07T12:58:43;4.47;;;3.87;;
11996;SDS011;6058;48.704;9.474;2022-12-07T13:06:59;5.03;;;3.90;;
11996;SDS011;6058;48.704;9.474;2022-12-07T13:09:27;4.63;;;3.50;;
11996;SDS011;6058;48.704;9.474;2022-12-07T13:11:58;6.97;;;3.80;;
11996;SDS011;6058;48.704;9.474;2022-12-07T13:14:43;4.50;;;3.13;;
11996;SDS011;6058;48.704;9.474;2022-12-07T13:20:00;6.40;;;3.50;;
11996;SDS011;6058;48.704;9.474;2022-12-07T13:22:34;4.20;;;3.27;;
11996;SDS011;6058;48.704;9.474;2022-12-07T13:25:05;4.33;;;3.20;;
11996;SDS011;6058;48.704;9.474;2022-12-07T13:27:34;6.53;;;2.73;;
11996;SDS011;6058;48.704;9.474;2022-12-07T13:30:06;6.47;;;3.77;;
11996;SDS011;6058;48.704;9.474;2022-12-07T13:32:35;6.93;;;3.60;;
11996;SDS011;6058;48.704;9.474;2022-12-07T13:37:44;4.67;;;3.27;;
11996;SDS011;6058;48.704;9.474;2022-12-07T13:40:15;9.47;;;3.43;;
11996;SDS011;6058;48.704;9.474;2022-12-07T13:42:44;5.37;;;3.67;;
11996;SDS011;6058;48.704;9.474;2022-12-07T13:45:20;3.97;;;3.43;;
11996;SDS011;6058;48.704;9.474;2022-12-07T13:48:08;5.07;;;3.67;;
11996;SDS011;6058;48.704;9.474;2022-12-07T13:50:37;4.17;;;3.43;;
11996;SDS011;6058;48.704;9.474;2022-12-07T13:53:07;4.70;;;3.70;;
11996;SDS011;6058;48.704;9.474;2022-12-07T13:55:44;6.17;;;3.70;;
11996;SDS011;6058;48.704;9.474;2022-12-07T13:58:14;4.27;;;3.60;;
11996;SDS011;6058;48.704;9.474;2022-12-07T14:00:42;6.17;;;3.87;;
11996;SDS011;6058;48.704;9.474;2022-12-07T14:03:26;6.03;;;3.93;;
11996;SDS011;6058;48.704;9.474;2022-12-07T14:06:11;5.00;;;3.50;;
11996;SDS011;6058;48.704;9.474;2022-12-07T14:08:40;4.70;;;3.70;;
11996;SDS011;6058;48.704;9.474;2022-12-07T14:11:07;5.60;;;3.77;;
11996;SDS011;6058;48.704;9.474;2022-12-07T14:13:36;5.23;;;3.80;;
11996;SDS011;6058;48.704;9.474;2022-12-07T14:16:16;4.90;;;3.80;;
11996;SDS011;6058;48.704;9.474;2022-12-07T14:18:44;5.80;;;4.30;;
11996;SDS011;6058;48.704;9.474;2022-12-07T14:21:14;7.40;;;4.23;;
11996;SDS011;6058;48.704;9.474;2022-12-07T14:23:42;7.97;;;4.60;;
11996;SDS011;6058;48.704;9.474;2022-12-07T14:26:11;12.27;;;4.33;;
11996;SDS011;6058;48.704;9.474;2022-12-07T14:28:40;7.63;;;4.20;;
11996;SDS011;6058;48.704;9.474;2022-12-07T14:31:10;6.73;;;4.23;;
11996;SDS011;6058;48.704;9.474;2022-12-07T14:33:39;6.13;;;4.23;;
11996;SDS011;6058;48.704;9.474;2022-12-07T14:36:08;5.97;;;4.27;;
11996;SDS011;6058;48.704;9.474;2022-12-07T14:38:35;7.80;;;4.30;;
11996;SDS011;6058;48.704;9.474;2022-12-07T14:41:02;8.00;;;4.40;;
11996;SDS011;6058;48.704;9.474;2022-12-07T14:43:48;5.53;;;3.83;;
11996;SDS011;6058;48.704;9.474;2022-12-07T14:46:15;5.17;;;3.90;;
11996;SDS011;6058;48.704;9.474;2022-12-07T14:48:43;5.20;;;3.70;;
11996;SDS011;6058;48.704;9.474;2022-12-07T14:51:11;5.13;;;3.97;;
11996;SDS011;6058;48.704;9.474;2022-12-07T14:53:40;5.50;;;4.07;;
11996;SDS011;6058;48.704;9.474;2022-12-07T14:56:07;6.03;;;4.03;;
11996;SDS011;6058;48.704;9.474;2022-12-07T14:58:34;3.50;;;3.20;;
11996;SDS011;6058;48.704;9.474;2022-12-07T15:01:02;5.40;;;3.50;;
11996;SDS011;6058;48.704;9.474;2022-12-07T15:03:29;6.83;;;4.30;;
11996;SDS011;6058;48.704;9.474;2022-12-07T15:05:58;6.00;;;4.23;;
11996;SDS011;6058;48.704;9.474;2022-12-07T15:08:25;6.13;;;4.30;;
11996;SDS011;6058;48.704;9.474;2022-12-07T15:10:52;7.53;;;3.83;;
11996;SDS011;6058;48.704;9.474;2022-12-07T15:13:19;5.60;;;4.43;;
11996;SDS011;6058;48.704;9.474;2022-12-07T15:16:04;7.33;;;4.20;;
11996;SDS011;6058;48.704;9.474;2022-12-07T15:18:31;5.57;;;4.37;;
11996;SDS011;6058;48.704;9.474;2022-12-07T15:21:00;6.73;;;4.03;;
11996;SDS011;6058;48.704;9.474;2022-12-07T15:23:27;9.33;;;3.50;;
11996;SDS011;6058;48.704;9.474;2022-12-07T15:25:54;6.10;;;3.87;;
11996;SDS011;6058;48.704;9.474;2022-12-07T15:28:21;5.43;;;3.83;;
11996;SDS011;6058;48.704;9.474;2022-12-07T15:30:49;5.80;;;4.17;;
11996;SDS011;6058;48.704;9.474;2022-12-07T15:33:16;7.63;;;4.40;;
11996;SDS011;6058;48.704;9.474;2022-12-07T15:35:44;6.33;;;4.37;;
11996;SDS011;6058;48.704;9.474;2022-12-07T15:38:12;6.10;;;3.90;;
11996;SDS011;6058;48.704;9.474;2022-12-07T15:40:40;5.40;;;3.87;;
11996;SDS011;6058;48.704;9.474;2022-12-07T15:43:08;6.30;;;4.53;;
11996;SDS011;6058;48.704;9.474;2022-12-07T15:45:56;7.90;;;4.53;;
11996;SDS011;6058;48.704;9.474;2022-12-07T15:48:22;7.67;;;4.60;;
11996;SDS011;6058;48.704;9.474;2022-12-07T15:50:49;9.67;;;4.23;;
11996;SDS011;6058;48.704;9.474;2022-12-07T15:53:18;7.33;;;4.40;;
11996;SDS011;6058;48.704;9.474;2022-12-07T15:55:45;7.00;;;4.90;;
11996;SDS011;6058;48.704;9.474;2022-12-07T15:58:12;7.10;;;4.87;;
11996;SDS011;6058;48.704;9.474;2022-12-07T16:00:39;5.93;;;4.27;;
11996;SDS011;6058;48.704;9.474;2022-12-07T16:03:06;5.40;;;3.87;;
11996;SDS011;6058;48.704;9.474;2022-12-07T16:05:33;9.57;;;4.73;;
11996;SDS011;6058;48.704;9.474;2022-12-07T16:08:00;8.53;;;5.10;;
11996;SDS011;6058;48.704;9.474;2022-12-07T16:10:29;5.97;;;4.63;;
11996;SDS011;6058;48.704;9.474;2022-12-07T16:12:56;10.73;;;5.03;;
11996;SDS011;6058;48.704;9.474;2022-12-07T16:15:23;7.87;;;5.00;;
11996;SDS011;6058;48.704;9.474;2022-12-07T16:17:51;7.23;;;4.50;;
11996;SDS011;6058;48.704;9.474;2022-12-07T16:20:20;7.77;;;4.87;;
11996;SDS011;6058;48.704;9.474;2022-12-07T16:22:50;6.60;;;5.23;;
11996;SDS011;6058;48.704;9.474;2022-12-07T16:25:17;7.37;;;5.40;;
11996;SDS011;6058;48.704;9.474;2022-12-07T16:27:46;6.83;;;4.97;;
11996;SDS011;6058;48.704;9.474;2022-12-07T16:30:13;7.00;;;4.60;;
11996;SDS011;6058;48.704;9.474;2022-12-07T16:32:41;6.77;;;4.70;;
11996;SDS011;6058;48.704;9.474;2022-12-07T16:35:08;6.67;;;4.67;;
11996;SDS011;6058;48.704;9.474;2022-12-07T16:37:35;9.83;;;5.40;;
11996;SDS011;6058;48.704;9.474;2022-12-07T16:40:03;6.07;;;4.80;;